Terminal Aerodrome Forecast
Issued by NWS

Home | Current Version | Previous Version | Text Only | Print | Product List | Glossary On
Versions: 1 2 3 4 5 6 7 8 9 10 11 12
857
FTUS43 KMQT 031732
TAFSAW
TAF
KSAW 031732Z 0318/0418 25012G19KT P6SM -SHRA OVC070
     FM032000 27010G17KT P6SM -SHRA OVC040
     FM032200 30008KT 6SM -SHRA OVC035
     FM040000 36006KT P6SM VCSH OVC030
     FM040300 35010G15KT P6SM OVC030
     FM040600 35012G17KT P6SM OVC017
     FM041000 36013G18KT P6SM -SHSNRA OVC016
     FM041600 35014G24KT P6SM OVC012=

USA.gov is the U.S. government's official web portal to all federal, state and local government web resources and services.